Weather at Banak Airport

Public forecast

Using degrees Celsius for public forecast. Weather courtesy of forecast.io.

Current aviation weather report (METAR) for Banak Airport

Retrieved 2021/09/25 18:20 UTC (21 minutes ago):

ENNA 251820Z AUTO 16003KT 9999 BKN049/// 07/05 Q1001 RMK WIND 1800FT 25014KT

Aviation forecast (TAF) for Banak Airport

Retrieved 2021/09/25 18:57 UTC (0 seconds ago):

TAF TAF ENNA 251700Z 2518/2618 18008KT 9999 FEW010 BKN030 TEMPO 2612/2618 18020KT PROB40 2518/2524 SHRA